createdAt,value
2022-08-30T00:00:16.104Z,47.45
2022-08-30T00:02:44.577Z,47.77
2022-08-30T00:05:16.919Z,48.45
2022-08-30T00:07:45.897Z,47.99
2022-08-30T00:10:13.794Z,48.64
2022-08-30T00:12:43.867Z,48.79
2022-08-30T00:15:14.121Z,48.96
2022-08-30T00:17:43.683Z,48.66
2022-08-30T00:20:14.359Z,48.45
2022-08-30T00:22:42.617Z,48.91
2022-08-30T00:25:10.630Z,48.57
2022-08-30T00:27:38.997Z,48.48
2022-08-30T00:30:10.520Z,48.60
2022-08-30T00:32:38.184Z,48.58
2022-08-30T00:35:07.587Z,48.94
2022-08-30T00:37:35.687Z,48.48
2022-08-30T00:40:05.829Z,48.66
2022-08-30T00:42:33.722Z,48.90
2022-08-30T00:45:10.106Z,48.65
2022-08-30T00:47:37.624Z,49.25
2022-08-30T00:50:08.665Z,49.00
2022-08-30T00:52:41.349Z,48.97
2022-08-30T00:55:09.857Z,48.78
2022-08-30T00:57:37.621Z,48.76
2022-08-30T01:00:07.187Z,49.05
2022-08-30T01:02:35.306Z,48.79
2022-08-30T01:05:05.659Z,48.92
2022-08-30T01:07:35.320Z,48.90
2022-08-30T01:10:05.384Z,48.88
2022-08-30T01:12:34.457Z,48.94
2022-08-30T01:15:02.740Z,49.08
2022-08-30T01:17:30.806Z,49.20
2022-08-30T01:20:07.242Z,49.33
2022-08-30T01:22:43.992Z,49.20
2022-08-30T01:25:22.231Z,49.36
2022-08-30T01:27:54.237Z,49.08
2022-08-30T01:30:24.574Z,49.20
2022-08-30T01:33:01.389Z,49.22
2022-08-30T01:35:35.897Z,49.06
2022-08-30T01:38:03.775Z,48.49
2022-08-30T01:40:31.421Z,48.52
2022-08-30T01:43:00.599Z,47.95
2022-08-30T01:45:28.247Z,47.64
2022-08-30T01:47:56.193Z,47.40
2022-08-30T01:50:27.656Z,47.31
2022-08-30T01:52:56.719Z,47.02
2022-08-30T01:55:25.031Z,46.75
2022-08-30T01:57:52.767Z,45.88
2022-08-30T02:00:21.956Z,45.32
2022-08-30T02:02:49.709Z,45.60
2022-08-30T02:05:17.651Z,45.29
2022-08-30T02:07:45.406Z,45.03
2022-08-30T02:10:15.074Z,44.81
2022-08-30T02:12:43.169Z,44.60
2022-08-30T02:15:11.178Z,44.82
2022-08-30T02:17:39.679Z,44.78
2022-08-30T02:20:08.221Z,44.82
2022-08-30T02:22:35.871Z,44.73
2022-08-30T02:25:06.578Z,44.80
2022-08-30T02:27:39.476Z,45.02
2022-08-30T02:30:11.123Z,44.82
2022-08-30T02:32:38.929Z,44.55
2022-08-30T02:35:06.847Z,44.53
2022-08-30T02:37:34.672Z,44.24
2022-08-30T02:40:02.563Z,44.09
2022-08-30T02:42:30.366Z,44.48
2022-08-30T02:44:58.224Z,44.12
2022-08-30T02:47:26.861Z,43.89
2022-08-30T02:49:54.696Z,43.86
2022-08-30T02:52:27.648Z,44.27
2022-08-30T02:54:57.835Z,44.20
2022-08-30T02:57:26.012Z,43.82
2022-08-30T02:59:53.748Z,43.78
2022-08-30T03:02:22.633Z,44.09
2022-08-30T03:04:50.598Z,43.96
2022-08-30T03:07:19.966Z,43.75
2022-08-30T03:09:47.840Z,43.67
2022-08-30T03:12:16.838Z,43.45
2022-08-30T03:14:44.738Z,43.54
2022-08-30T03:17:13.804Z,43.70
2022-08-30T03:19:47.583Z,43.43
2022-08-30T03:22:15.871Z,43.67
2022-08-30T03:24:45.425Z,43.44
2022-08-30T03:27:14.939Z,43.41
2022-08-30T03:29:42.955Z,43.23
2022-08-30T03:32:15.710Z,43.21
2022-08-30T03:34:44.619Z,43.78
2022-08-30T03:37:12.286Z,43.08
2022-08-30T03:39:40.624Z,43.33
2022-08-30T03:42:08.747Z,43.55
2022-08-30T03:44:36.814Z,43.52
2022-08-30T03:47:07.461Z,43.46
2022-08-30T03:49:35.534Z,43.84
2022-08-30T03:52:04.501Z,44.19
2022-08-30T03:54:32.345Z,44.23
2022-08-30T03:57:01.066Z,44.33
2022-08-30T03:59:28.780Z,44.33
2022-08-30T04:01:56.585Z,44.67
2022-08-30T04:04:24.501Z,44.24
2022-08-30T04:06:52.228Z,44.75
2022-08-30T04:09:20.217Z,44.74
2022-08-30T04:11:48.051Z,45.08
2022-08-30T04:14:15.791Z,45.18
2022-08-30T04:16:43.759Z,45.27
2022-08-30T04:19:11.930Z,45.58
2022-08-30T04:21:43.127Z,45.43
2022-08-30T04:24:12.461Z,45.82
2022-08-30T04:26:40.100Z,46.00
2022-08-30T04:29:08.188Z,46.26
2022-08-30T04:31:35.900Z,46.47
2022-08-30T04:34:03.856Z,46.80
2022-08-30T04:36:31.573Z,46.99
2022-08-30T04:38:59.384Z,47.07
2022-08-30T04:41:27.231Z,46.72
2022-08-30T04:43:54.932Z,46.68
2022-08-30T04:46:22.777Z,46.73
2022-08-30T04:48:50.453Z,47.02
2022-08-30T04:51:18.541Z,46.63
2022-08-30T04:53:46.699Z,46.45
2022-08-30T04:56:17.410Z,46.31
2022-08-30T04:58:46.551Z,45.80
2022-08-30T05:01:20.604Z,45.66
2022-08-30T05:03:52.979Z,45.74
2022-08-30T05:06:21.363Z,45.55
2022-08-30T05:08:51.738Z,45.32
2022-08-30T05:11:20.275Z,45.35
2022-08-30T05:13:49.841Z,45.25
2022-08-30T05:16:19.539Z,45.06
2022-08-30T05:18:49.139Z,44.83
2022-08-30T05:21:28.259Z,44.45
2022-08-30T05:23:58.440Z,44.59
2022-08-30T05:26:29.658Z,44.71
2022-08-30T05:28:57.858Z,44.47
2022-08-30T05:31:32.415Z,44.35
2022-08-30T05:34:01.506Z,44.34
2022-08-30T05:36:31.856Z,44.57
2022-08-30T05:39:00.668Z,44.48
2022-08-30T05:41:29.132Z,44.34
2022-08-30T05:43:59.036Z,44.67
2022-08-30T05:49:07.539Z,44.32
2022-08-30T05:51:43.132Z,44.66
2022-08-30T05:54:13.170Z,45.19
2022-08-30T05:56:42.741Z,44.58
2022-08-30T05:59:10.408Z,44.68
2022-08-30T06:01:44.504Z,44.80
2022-08-30T06:04:13.605Z,44.85
2022-08-30T06:06:43.213Z,44.80
2022-08-30T06:09:13.133Z,45.08
2022-08-30T06:11:40.957Z,44.88
2022-08-30T06:14:09.059Z,45.22
2022-08-30T06:16:39.141Z,45.00
2022-08-30T06:19:09.685Z,45.24
2022-08-30T06:21:39.498Z,45.75
2022-08-30T06:24:09.120Z,45.57
2022-08-30T06:26:47.424Z,46.27
2022-08-30T06:29:19.060Z,46.09
2022-08-30T06:31:47.634Z,46.61
2022-08-30T06:34:16.615Z,46.38
2022-08-30T06:36:44.647Z,46.96
2022-08-30T06:39:12.316Z,47.10
2022-08-30T06:41:41.479Z,47.10
2022-08-30T06:44:28.225Z,47.52
2022-08-30T06:46:58.461Z,48.05
2022-08-30T06:49:26.330Z,48.04
2022-08-30T06:51:54.217Z,47.87
2022-08-30T06:54:21.920Z,47.98
2022-08-30T06:56:58.035Z,48.62
2022-08-30T06:59:27.392Z,48.37
2022-08-30T07:01:56.061Z,48.86
2022-08-30T07:04:24.618Z,49.37
2022-08-30T07:06:53.609Z,49.30
2022-08-30T07:09:23.135Z,49.34
2022-08-30T07:11:51.874Z,49.47
2022-08-30T07:14:20.623Z,48.89
2022-08-30T07:16:51.257Z,49.41
2022-08-30T07:19:21.438Z,49.28
2022-08-30T07:21:50.441Z,49.63
2022-08-30T07:24:18.430Z,49.46
2022-08-30T07:26:51.979Z,49.26
2022-08-30T07:29:21.400Z,49.77
2022-08-30T07:31:49.506Z,49.65
2022-08-30T07:34:19.816Z,50.56
2022-08-30T07:36:49.382Z,50.64
2022-08-30T07:39:17.206Z,50.39
2022-08-30T07:41:44.952Z,50.24
2022-08-30T07:44:12.722Z,50.58
2022-08-30T07:46:41.984Z,50.96
2022-08-30T07:49:11.586Z,50.39
2022-08-30T07:51:40.634Z,50.67
2022-08-30T07:54:08.826Z,50.31
2022-08-30T07:56:36.518Z,50.31
2022-08-30T07:59:04.619Z,50.34
2022-08-30T08:01:32.490Z,50.27
2022-08-30T08:04:00.491Z,50.30
2022-08-30T08:06:34.687Z,50.57
2022-08-30T08:09:03.022Z,50.95
2022-08-30T08:11:33.838Z,51.17
2022-08-30T08:14:03.680Z,51.26
2022-08-30T08:16:34.427Z,51.98
2022-08-30T08:19:02.244Z,51.56
2022-08-30T08:21:29.945Z,51.33
2022-08-30T08:23:57.771Z,51.67
2022-08-30T08:26:25.440Z,51.58
2022-08-30T08:28:53.277Z,51.23
2022-08-30T08:31:31.445Z,51.43
2022-08-30T08:34:05.865Z,51.68
2022-08-30T08:36:36.021Z,51.06
2022-08-30T08:39:06.017Z,51.17
2022-08-30T08:42:11.251Z,51.38
2022-08-30T08:44:39.718Z,51.26
2022-08-30T08:47:14.373Z,51.22
2022-08-30T08:49:46.600Z,51.41
2022-08-30T08:52:40.989Z,51.37
2022-08-30T08:55:16.393Z,51.55
2022-08-30T08:57:44.367Z,51.55
2022-08-30T09:00:13.696Z,51.11
2022-08-30T09:02:59.644Z,51.63
2022-08-30T09:05:36.765Z,51.71
2022-08-30T09:08:15.006Z,51.97
2022-08-30T09:10:55.489Z,51.61
2022-08-30T09:13:24.925Z,51.12
2022-08-30T09:15:56.253Z,51.19
2022-08-30T09:18:51.243Z,51.11
2022-08-30T09:21:27.446Z,51.13
2022-08-30T09:24:01.186Z,51.13
2022-08-30T09:26:32.640Z,51.08
2022-08-30T09:29:01.159Z,51.26
2022-08-30T09:31:45.302Z,51.38
2022-08-30T09:34:18.541Z,50.98
2022-08-30T09:36:52.113Z,51.16
2022-08-30T09:39:41.566Z,51.35
2022-08-30T09:42:23.924Z,51.44
2022-08-30T09:44:53.028Z,50.70
2022-08-30T09:47:27.758Z,50.94
2022-08-30T09:50:10.153Z,51.19
2022-08-30T09:53:10.719Z,51.16
2022-08-30T09:56:02.066Z,51.12
2022-08-30T09:58:54.839Z,50.81
2022-08-30T10:01:30.067Z,50.90
2022-08-30T10:04:01.154Z,51.02
2022-08-30T10:06:37.071Z,50.86
2022-08-30T10:09:14.050Z,51.07
2022-08-30T10:11:49.405Z,50.74
2022-08-30T10:14:20.158Z,51.25
2022-08-30T10:17:20.639Z,50.83
2022-08-30T10:20:10.758Z,51.18
2022-08-30T10:22:44.123Z,51.20
2022-08-30T10:25:21.883Z,51.16
2022-08-30T10:27:56.432Z,50.80
2022-08-30T10:30:29.064Z,51.11
2022-08-30T10:33:12.553Z,51.22
2022-08-30T10:35:47.181Z,51.29
2022-08-30T10:38:32.925Z,51.42
2022-08-30T10:41:24.867Z,51.57
2022-08-30T10:44:07.765Z,51.36
2022-08-30T10:47:01.579Z,51.09
2022-08-30T10:49:35.360Z,50.89
2022-08-30T10:52:19.847Z,50.84
2022-08-30T10:54:59.695Z,50.34
2022-08-30T10:57:28.543Z,50.31
2022-08-30T11:00:11.251Z,50.53
2022-08-30T11:02:58.223Z,50.82
2022-08-30T11:05:32.458Z,50.89
2022-08-30T11:08:22.051Z,50.92
2022-08-30T11:11:26.183Z,51.39
2022-08-30T11:13:57.265Z,51.46
2022-08-30T11:16:40.004Z,52.72
2022-08-30T11:19:26.528Z,52.68
2022-08-30T11:22:25.067Z,52.91
2022-08-30T11:25:14.854Z,52.89
2022-08-30T11:27:53.149Z,52.70
2022-08-30T11:30:30.798Z,52.89
2022-08-30T11:33:10.155Z,53.23
2022-08-30T11:35:50.751Z,53.65
2022-08-30T11:38:27.742Z,53.21
2022-08-30T11:40:55.405Z,53.33
2022-08-30T11:43:40.253Z,53.08
2022-08-30T11:46:27.870Z,53.64
2022-08-30T11:48:58.620Z,53.50
2022-08-30T11:51:29.307Z,53.42
2022-08-30T11:54:26.939Z,53.33
2022-08-30T11:57:40.999Z,53.65
2022-08-30T12:00:25.226Z,53.45
2022-08-30T12:03:28.876Z,53.39
2022-08-30T12:06:00.681Z,53.67
2022-08-30T12:08:28.494Z,53.43
2022-08-30T12:11:01.181Z,53.79
2022-08-30T12:13:39.372Z,54.07
2022-08-30T12:16:20.235Z,53.66
2022-08-30T12:19:10.227Z,53.74
2022-08-30T12:21:44.964Z,53.61
2022-08-30T12:24:17.047Z,53.87
2022-08-30T12:26:47.703Z,53.75
2022-08-30T12:29:24.463Z,53.79
2022-08-30T12:31:58.590Z,53.84
2022-08-30T12:34:29.056Z,53.73
2022-08-30T12:37:15.620Z,53.88
2022-08-30T12:39:53.698Z,53.54
2022-08-30T12:42:31.266Z,53.97
2022-08-30T12:45:05.700Z,53.61
2022-08-30T12:47:48.747Z,53.82
2022-08-30T12:50:22.094Z,53.80
2022-08-30T12:53:13.940Z,53.23
2022-08-30T12:56:02.093Z,53.50
2022-08-30T12:58:43.629Z,54.18
2022-08-30T13:01:33.826Z,53.97
2022-08-30T13:04:22.968Z,54.10
2022-08-30T13:07:00.383Z,54.18
2022-08-30T13:09:32.509Z,53.82
2022-08-30T13:12:08.299Z,54.28
2022-08-30T13:14:43.790Z,54.20
2022-08-30T13:17:22.397Z,54.26
2022-08-30T13:20:26.233Z,54.06
2022-08-30T13:23:08.919Z,54.64
2022-08-30T13:25:39.177Z,54.41
2022-08-30T13:28:09.470Z,54.21
2022-08-30T13:30:39.071Z,54.19
2022-08-30T13:33:06.872Z,53.92
2022-08-30T13:35:34.787Z,54.39
2022-08-30T13:38:02.767Z,54.14
2022-08-30T13:40:32.909Z,54.13
2022-08-30T13:43:02.039Z,54.02
2022-08-30T13:45:44.942Z,54.11
2022-08-30T13:48:15.456Z,54.06
2022-08-30T13:50:46.584Z,53.87
2022-08-30T13:53:51.570Z,54.25
2022-08-30T13:56:06.154Z,54.22
2022-08-30T13:58:36.284Z,53.92
2022-08-30T14:01:04.023Z,53.68
2022-08-30T14:03:33.850Z,53.71
2022-08-30T14:06:29.538Z,53.71
2022-08-30T14:08:53.486Z,53.87
2022-08-30T14:11:23.756Z,53.63
2022-08-30T14:16:44.157Z,53.46
2022-08-30T14:19:14.187Z,53.56
2022-08-30T14:21:43.143Z,53.85
2022-08-30T14:24:14.381Z,53.52
2022-08-30T14:26:51.568Z,53.81
2022-08-30T14:29:22.838Z,53.74
2022-08-30T14:31:52.686Z,53.47
2022-08-30T14:34:21.703Z,53.71
2022-08-30T14:36:49.681Z,53.69
2022-08-30T14:39:20.064Z,53.82
2022-08-30T14:41:50.777Z,53.40
2022-08-30T14:44:20.207Z,53.82
2022-08-30T14:46:49.197Z,53.84
2022-08-30T14:49:20.116Z,53.44
2022-08-30T14:51:48.661Z,53.28
2022-08-30T14:54:23.466Z,53.31
2022-08-30T14:56:54.325Z,53.20
2022-08-30T14:59:24.132Z,53.26
2022-08-30T15:01:51.935Z,53.05
2022-08-30T15:04:21.668Z,53.07
2022-08-30T15:06:51.209Z,53.31
2022-08-30T15:09:23.768Z,53.28
2022-08-30T15:11:55.140Z,53.26
2022-08-30T15:14:26.376Z,52.92
2022-08-30T15:16:58.277Z,52.70
2022-08-30T15:19:26.846Z,52.95
2022-08-30T15:21:55.236Z,52.90
2022-08-30T15:24:29.379Z,52.93
2022-08-30T15:26:59.948Z,52.74
2022-08-30T15:29:31.482Z,53.02
2022-08-30T15:32:01.962Z,52.87
2022-08-30T15:34:31.008Z,52.91
2022-08-30T15:36:59.500Z,53.28
2022-08-30T15:39:27.479Z,52.74
2022-08-30T15:42:01.105Z,52.88
2022-08-30T15:44:34.400Z,52.61
2022-08-30T15:47:03.026Z,52.60
2022-08-30T15:49:30.826Z,52.94
2022-08-30T15:52:03.913Z,53.17
2022-08-30T15:54:31.704Z,53.02
2022-08-30T15:57:00.088Z,52.44
2022-08-30T15:59:30.189Z,53.04
2022-08-30T16:01:58.519Z,52.79
2022-08-30T16:04:29.274Z,52.74
2022-08-30T16:06:57.407Z,52.72
2022-08-30T16:09:29.848Z,52.53
2022-08-30T16:12:01.190Z,52.46
2022-08-30T16:14:29.194Z,52.59
2022-08-30T16:16:58.281Z,52.61
2022-08-30T16:19:26.677Z,52.46
2022-08-30T16:21:54.558Z,52.89
2022-08-30T16:24:23.585Z,53.00
2022-08-30T16:26:51.650Z,52.88
2022-08-30T16:29:20.174Z,52.87
2022-08-30T16:31:48.562Z,52.63
2022-08-30T16:34:18.551Z,52.98
2022-08-30T16:36:46.914Z,52.52
2022-08-30T16:39:15.273Z,52.50
2022-08-30T16:41:44.806Z,53.00
2022-08-30T16:44:16.010Z,52.91
2022-08-30T16:46:53.053Z,53.00
2022-08-30T16:49:23.036Z,52.80
2022-08-30T16:51:51.643Z,53.71
2022-08-30T16:54:21.271Z,53.83
2022-08-30T16:56:49.135Z,53.81
2022-08-30T16:59:17.845Z,53.62
2022-08-30T17:01:46.731Z,53.75
2022-08-30T17:04:18.488Z,53.92
2022-08-30T17:06:50.060Z,54.03
2022-08-30T17:09:19.362Z,53.90
2022-08-30T17:11:48.429Z,54.22
2022-08-30T17:14:22.986Z,56.24
2022-08-30T17:16:58.379Z,55.91
2022-08-30T17:22:16.018Z,54.75
2022-08-30T17:24:43.801Z,54.79
2022-08-30T17:27:11.626Z,54.57
2022-08-30T17:29:39.351Z,54.63
2022-08-30T17:32:07.387Z,54.71
2022-08-30T17:34:37.168Z,55.05
2022-08-30T17:37:05.102Z,54.99
2022-08-30T17:39:32.935Z,54.81
2022-08-30T17:42:00.832Z,55.01
2022-08-30T17:44:31.254Z,54.94
2022-08-30T17:47:00.020Z,54.93
2022-08-30T17:49:29.031Z,54.92
2022-08-30T17:51:57.891Z,55.38
2022-08-30T17:54:30.355Z,55.22
2022-08-30T17:56:59.232Z,55.13
2022-08-30T17:59:29.297Z,55.53
2022-08-30T18:02:00.238Z,55.35
2022-08-30T18:04:28.935Z,55.47
2022-08-30T18:06:56.796Z,55.50
2022-08-30T18:09:25.355Z,55.87
2022-08-30T18:11:56.485Z,55.56
2022-08-30T18:14:24.764Z,55.93
2022-08-30T18:16:54.430Z,56.00
2022-08-30T18:19:24.453Z,56.03
2022-08-30T18:21:53.687Z,56.16
2022-08-30T18:24:22.540Z,56.24
2022-08-30T18:26:50.838Z,56.19
2022-08-30T18:29:29.539Z,55.96
2022-08-30T18:32:01.393Z,56.09
2022-08-30T18:34:29.486Z,55.99
2022-08-30T18:36:57.343Z,56.12
2022-08-30T18:39:25.522Z,55.97
2022-08-30T18:41:58.436Z,55.92
2022-08-30T18:44:28.813Z,56.03
2022-08-30T18:46:58.303Z,56.73
2022-08-30T18:49:32.147Z,57.22
2022-08-30T18:52:02.391Z,56.42
2022-08-30T18:54:30.444Z,55.97
2022-08-30T18:56:58.496Z,56.35
2022-08-30T18:59:35.307Z,56.21
2022-08-30T19:02:08.143Z,56.22
2022-08-30T19:04:37.783Z,55.76
2022-08-30T19:07:08.071Z,55.80
2022-08-30T19:09:37.658Z,55.76
2022-08-30T19:12:09.561Z,55.56
2022-08-30T19:14:40.232Z,55.43
2022-08-30T19:17:08.277Z,55.77
2022-08-30T19:19:47.437Z,55.78
2022-08-30T19:22:21.616Z,55.70
2022-08-30T19:24:51.011Z,55.67
2022-08-30T19:27:38.057Z,55.48
2022-08-30T19:30:11.265Z,55.71
2022-08-30T19:32:38.932Z,55.98
2022-08-30T19:35:07.705Z,55.62
2022-08-30T19:37:36.953Z,55.87
2022-08-30T19:40:08.736Z,55.45
2022-08-30T19:42:43.376Z,55.82
2022-08-30T19:48:05.943Z,55.58
2022-08-30T19:50:33.804Z,55.51
2022-08-30T19:53:01.732Z,55.40
2022-08-30T19:55:31.409Z,55.71
2022-08-30T19:57:59.490Z,55.48
2022-08-30T20:00:27.566Z,55.69
2022-08-30T20:03:01.802Z,55.93
2022-08-30T20:05:31.383Z,55.73
2022-08-30T20:08:00.161Z,56.10
2022-08-30T20:10:28.071Z,56.47
2022-08-30T20:12:55.892Z,56.44
2022-08-30T20:15:25.020Z,56.20
2022-08-30T20:18:05.257Z,56.13
2022-08-30T20:20:36.962Z,56.39
2022-08-30T20:23:05.987Z,56.41
2022-08-30T20:24:23.646Z,54.54
2022-08-30T20:25:35.145Z,56.63
2022-08-30T20:28:03.499Z,56.77
2022-08-30T20:30:52.333Z,56.69
2022-08-30T20:33:21.710Z,56.84
2022-08-30T20:35:51.474Z,56.36
2022-08-30T20:38:24.255Z,56.49
2022-08-30T20:40:56.647Z,57.06
2022-08-30T20:43:27.560Z,57.03
2022-08-30T20:45:56.257Z,57.24
2022-08-30T20:48:27.206Z,57.08
2022-08-30T20:50:55.056Z,57.15
2022-08-30T20:53:22.709Z,57.50
2022-08-30T20:55:50.505Z,57.43
2022-08-30T20:58:18.478Z,57.44
2022-08-30T21:00:53.628Z,57.80
2022-08-30T21:03:27.232Z,57.59
2022-08-30T21:05:56.789Z,57.64
2022-08-30T21:08:25.545Z,57.40
2022-08-30T21:10:53.995Z,57.78
2022-08-30T21:13:22.111Z,57.55
2022-08-30T21:15:55.547Z,57.21
2022-08-30T21:18:31.221Z,57.26
2022-08-30T21:21:00.321Z,57.64
2022-08-30T21:23:27.991Z,57.70
2022-08-30T21:25:56.867Z,57.50
2022-08-30T21:28:24.596Z,57.41
2022-08-30T21:31:07.170Z,57.82
2022-08-30T21:33:35.526Z,57.41
2022-08-30T21:36:22.563Z,57.67
2022-08-30T21:38:52.877Z,57.41
2022-08-30T21:41:22.124Z,58.00
2022-08-30T21:43:59.549Z,57.56
2022-08-30T21:46:29.597Z,57.49
2022-08-30T21:49:01.415Z,57.85
2022-08-30T21:51:34.283Z,57.68
2022-08-30T21:54:02.678Z,57.67
2022-08-30T21:56:30.779Z,57.88
2022-08-30T21:58:58.619Z,57.84
2022-08-30T22:01:28.850Z,57.76
2022-08-30T22:03:59.222Z,57.58
2022-08-30T22:06:30.598Z,57.95
2022-08-30T22:09:01.360Z,58.10
2022-08-30T22:11:31.518Z,57.76
2022-08-30T22:13:59.461Z,57.95
2022-08-30T22:16:29.437Z,58.00
2022-08-30T22:18:57.441Z,58.10
2022-08-30T22:21:27.741Z,58.33
2022-08-30T22:23:56.558Z,58.38
2022-08-30T22:26:25.369Z,58.28
2022-08-30T22:28:54.601Z,58.04
2022-08-30T22:31:23.978Z,58.35
2022-08-30T22:33:52.951Z,58.49
2022-08-30T22:36:24.380Z,58.06
2022-08-30T22:39:01.882Z,58.17
2022-08-30T22:41:34.146Z,57.96
2022-08-30T22:44:02.664Z,57.91
2022-08-30T22:46:34.218Z,57.86
2022-08-30T22:49:08.384Z,57.90
2022-08-30T22:51:37.341Z,58.28
2022-08-30T22:54:07.131Z,58.16
2022-08-30T22:56:36.139Z,58.06
2022-08-30T22:59:04.938Z,57.81
2022-08-30T23:01:37.065Z,58.36
2022-08-30T23:04:07.520Z,57.65
2022-08-30T23:06:35.838Z,58.04
2022-08-30T23:09:05.118Z,57.69
2022-08-30T23:11:33.410Z,57.65
2022-08-30T23:14:03.254Z,57.90
2022-08-30T23:16:32.842Z,57.53
2022-08-30T23:19:00.731Z,57.59
2022-08-30T23:21:30.423Z,57.45
2022-08-30T23:24:17.523Z,57.85
2022-08-30T23:27:04.871Z,57.91
2022-08-30T23:29:52.523Z,58.04
2022-08-30T23:32:40.161Z,58.00
2022-08-30T23:35:30.567Z,57.79
2022-08-30T23:38:18.789Z,58.10
2022-08-30T23:41:05.232Z,58.24
2022-08-30T23:43:51.628Z,58.14
2022-08-30T23:46:40.987Z,58.55
2022-08-30T23:49:27.971Z,58.78
2022-08-30T23:52:14.133Z,58.82
2022-08-30T23:55:00.426Z,58.39
2022-08-30T23:57:46.555Z,58.74
